Terminal Aerodrome Forecast
Issued by NWS

Home | Current Version | Previous Version | Graphics & Text | Print | Product List | Glossary On
Versions: 1 2 3 4 5 6 7 8 9 10 11 12 13 14 15 16 17 18 19 20 21 22 23 24 25 26 27 28 29 30
733
FTUS43 KBIS 210855 AAC
TAFJMS
TAF AMD
KJMS 210855Z 2109/2206 31026G37KT P6SM -SHSN BKN025 OVC035
      TEMPO 2110/2112 SCT025
     FM211200 32022G29KT P6SM SCT025
      TEMPO 2113/2117 BKN030
     FM211700 32019G25KT P6SM FEW030 FEW300
     FM211900 31015G20KT P6SM FEW300
     FM220100 29009KT P6SM FEW200=

USA.gov is the U.S. government's official web portal to all federal, state and local government web resources and services.